sensor_id;sensor_type;location;lat;lon;timestamp;temperature;humidity
28532;DHT22;15738;44.860;10.066;2023-04-06T00:01:56;5.80;99.90
28532;DHT22;15738;44.860;10.066;2023-04-06T00:04:41;5.70;99.90
28532;DHT22;15738;44.860;10.066;2023-04-06T00:07:27;5.80;99.90
28532;DHT22;15738;44.860;10.066;2023-04-06T00:10:15;5.80;99.90
28532;DHT22;15738;44.860;10.066;2023-04-06T00:13:01;5.80;99.90
28532;DHT22;15738;44.860;10.066;2023-04-06T00:15:47;5.70;99.90
28532;DHT22;15738;44.860;10.066;2023-04-06T00:18:32;5.70;99.90
28532;DHT22;15738;44.860;10.066;2023-04-06T00:21:18;5.60;99.90
28532;DHT22;15738;44.860;10.066;2023-04-06T00:24:04;5.60;99.90
28532;DHT22;15738;44.860;10.066;2023-04-06T00:26:50;5.40;99.90
28532;DHT22;15738;44.860;10.066;2023-04-06T00:29:35;5.30;99.90
28532;DHT22;15738;44.860;10.066;2023-04-06T00:32:22;5.30;99.90
28532;DHT22;15738;44.860;10.066;2023-04-06T00:35:08;5.30;99.90
28532;DHT22;15738;44.860;10.066;2023-04-06T00:37:53;5.30;99.90
28532;DHT22;15738;44.860;10.066;2023-04-06T00:40:39;5.30;99.90
28532;DHT22;15738;44.860;10.066;2023-04-06T00:43:25;5.20;99.90
28532;DHT22;15738;44.860;10.066;2023-04-06T00:46:10;5.30;99.90
28532;DHT22;15738;44.860;10.066;2023-04-06T00:48:56;5.20;99.90
28532;DHT22;15738;44.860;10.066;2023-04-06T00:51:42;5.30;99.90
28532;DHT22;15738;44.860;10.066;2023-04-06T00:54:28;5.30;99.90
28532;DHT22;15738;44.860;10.066;2023-04-06T00:57:16;5.30;99.90
28532;DHT22;15738;44.860;10.066;2023-04-06T01:00:04;5.30;99.90
28532;DHT22;15738;44.860;10.066;2023-04-06T01:02:50;5.20;99.90
28532;DHT22;15738;44.860;10.066;2023-04-06T01:05:39;5.10;99.90
28532;DHT22;15738;44.860;10.066;2023-04-06T01:08:34;5.10;99.90
28532;DHT22;15738;44.860;10.066;2023-04-06T01:11:31;5.10;99.90
28532;DHT22;15738;44.860;10.066;2023-04-06T01:14:20;5.10;99.90
28532;DHT22;15738;44.860;10.066;2023-04-06T01:17:15;5.10;99.90
28532;DHT22;15738;44.860;10.066;2023-04-06T01:20:01;4.90;99.90
28532;DHT22;15738;44.860;10.066;2023-04-06T01:22:49;4.80;99.90
28532;DHT22;15738;44.860;10.066;2023-04-06T01:25:36;4.80;99.90
28532;DHT22;15738;44.860;10.066;2023-04-06T01:28:25;4.70;99.90
28532;DHT22;15738;44.860;10.066;2023-04-06T01:31:22;4.70;99.90
28532;DHT22;15738;44.860;10.066;2023-04-06T01:34:09;4.70;99.90
28532;DHT22;15738;44.860;10.066;2023-04-06T01:36:55;4.70;99.90
28532;DHT22;15738;44.860;10.066;2023-04-06T01:39:45;4.80;99.90
28532;DHT22;15738;44.860;10.066;2023-04-06T01:42:38;4.70;99.90
28532;DHT22;15738;44.860;10.066;2023-04-06T01:45:25;4.70;99.90
28532;DHT22;15738;44.860;10.066;2023-04-06T01:48:16;4.70;99.90
28532;DHT22;15738;44.860;10.066;2023-04-06T01:51:01;4.60;99.90
28532;DHT22;15738;44.860;10.066;2023-04-06T01:53:51;4.60;99.90
28532;DHT22;15738;44.860;10.066;2023-04-06T01:56:40;4.60;99.90
28532;DHT22;15738;44.860;10.066;2023-04-06T01:59:41;4.60;99.90
28532;DHT22;15738;44.860;10.066;2023-04-06T02:02:37;4.60;99.90
28532;DHT22;15738;44.860;10.066;2023-04-06T02:05:30;4.60;99.90
28532;DHT22;15738;44.860;10.066;2023-04-06T02:08:17;4.60;99.90
28532;DHT22;15738;44.860;10.066;2023-04-06T02:11:04;4.60;99.90
28532;DHT22;15738;44.860;10.066;2023-04-06T02:13:57;4.60;99.90
28532;DHT22;15738;44.860;10.066;2023-04-06T02:16:48;4.60;99.90
28532;DHT22;15738;44.860;10.066;2023-04-06T02:19:33;4.60;99.90
28532;DHT22;15738;44.860;10.066;2023-04-06T02:22:19;4.60;99.90
28532;DHT22;15738;44.860;10.066;2023-04-06T02:25:05;4.60;99.90
28532;DHT22;15738;44.860;10.066;2023-04-06T02:27:51;4.60;99.90
28532;DHT22;15738;44.860;10.066;2023-04-06T02:30:36;4.60;99.90
28532;DHT22;15738;44.860;10.066;2023-04-06T02:33:22;4.70;99.90
28532;DHT22;15738;44.860;10.066;2023-04-06T02:36:08;4.70;99.90
28532;DHT22;15738;44.860;10.066;2023-04-06T02:38:54;4.70;99.90
28532;DHT22;15738;44.860;10.066;2023-04-06T02:41:40;4.70;99.90
28532;DHT22;15738;44.860;10.066;2023-04-06T02:44:26;4.80;99.90
28532;DHT22;15738;44.860;10.066;2023-04-06T02:47:12;4.80;99.90
28532;DHT22;15738;44.860;10.066;2023-04-06T02:50:02;4.80;99.90
28532;DHT22;15738;44.860;10.066;2023-04-06T02:52:48;4.80;99.90
28532;DHT22;15738;44.860;10.066;2023-04-06T02:55:34;4.80;99.90
28532;DHT22;15738;44.860;10.066;2023-04-06T02:58:20;4.90;99.90
28532;DHT22;15738;44.860;10.066;2023-04-06T03:01:11;4.90;99.90
28532;DHT22;15738;44.860;10.066;2023-04-06T03:03:59;4.80;99.90
28532;DHT22;15738;44.860;10.066;2023-04-06T03:06:46;4.90;99.90
28532;DHT22;15738;44.860;10.066;2023-04-06T03:09:41;4.80;99.90
28532;DHT22;15738;44.860;10.066;2023-04-06T03:12:27;4.70;99.90
28532;DHT22;15738;44.860;10.066;2023-04-06T03:15:45;4.70;99.90
28532;DHT22;15738;44.860;10.066;2023-04-06T03:18:35;4.60;99.90
28532;DHT22;15738;44.860;10.066;2023-04-06T03:21:21;4.50;99.90
28532;DHT22;15738;44.860;10.066;2023-04-06T03:24:10;4.50;99.90
28532;DHT22;15738;44.860;10.066;2023-04-06T03:26:56;4.40;99.90
28532;DHT22;15738;44.860;10.066;2023-04-06T03:29:42;4.30;99.90
28532;DHT22;15738;44.860;10.066;2023-04-06T03:32:31;4.30;99.90
28532;DHT22;15738;44.860;10.066;2023-04-06T03:35:17;4.20;99.90
28532;DHT22;15738;44.860;10.066;2023-04-06T03:38:04;4.10;99.90
28532;DHT22;15738;44.860;10.066;2023-04-06T03:40:49;4.10;99.90
28532;DHT22;15738;44.860;10.066;2023-04-06T03:43:40;4.10;99.90
28532;DHT22;15738;44.860;10.066;2023-04-06T03:46:25;4.00;99.90
28532;DHT22;15738;44.860;10.066;2023-04-06T03:49:14;4.00;99.90
28532;DHT22;15738;44.860;10.066;2023-04-06T03:52:05;4.00;99.90
28532;DHT22;15738;44.860;10.066;2023-04-06T03:54:50;4.00;99.90
28532;DHT22;15738;44.860;10.066;2023-04-06T03:57:36;4.00;99.90
28532;DHT22;15738;44.860;10.066;2023-04-06T04:00:23;4.00;99.90
28532;DHT22;15738;44.860;10.066;2023-04-06T04:03:08;4.00;99.90
28532;DHT22;15738;44.860;10.066;2023-04-06T04:05:54;4.00;99.90
28532;DHT22;15738;44.860;10.066;2023-04-06T04:08:44;4.00;99.90
28532;DHT22;15738;44.860;10.066;2023-04-06T04:11:29;3.90;99.90
28532;DHT22;15738;44.860;10.066;2023-04-06T04:14:17;3.90;99.90
28532;DHT22;15738;44.860;10.066;2023-04-06T04:17:03;3.90;99.90
28532;DHT22;15738;44.860;10.066;2023-04-06T04:19:49;3.80;99.90
28532;DHT22;15738;44.860;10.066;2023-04-06T04:22:34;3.90;99.90
28532;DHT22;15738;44.860;10.066;2023-04-06T04:25:20;3.80;99.90
28532;DHT22;15738;44.860;10.066;2023-04-06T04:28:07;3.70;99.90
28532;DHT22;15738;44.860;10.066;2023-04-06T04:30:54;3.80;99.90
28532;DHT22;15738;44.860;10.066;2023-04-06T04:33:41;3.90;99.90
28532;DHT22;15738;44.860;10.066;2023-04-06T04:36:32;3.90;99.90
28532;DHT22;15738;44.860;10.066;2023-04-06T04:39:22;3.90;99.90
28532;DHT22;15738;44.860;10.066;2023-04-06T04:42:15;4.00;99.90
28532;DHT22;15738;44.860;10.066;2023-04-06T04:45:07;4.00;99.90
28532;DHT22;15738;44.860;10.066;2023-04-06T04:47:58;4.00;99.90
28532;DHT22;15738;44.860;10.066;2023-04-06T04:50:50;4.00;99.90
28532;DHT22;15738;44.860;10.066;2023-04-06T04:53:40;4.00;99.90
28532;DHT22;15738;44.860;10.066;2023-04-06T04:56:35;3.90;99.90
28532;DHT22;15738;44.860;10.066;2023-04-06T04:59:35;3.90;99.90
28532;DHT22;15738;44.860;10.066;2023-04-06T05:02:30;4.00;99.90
28532;DHT22;15738;44.860;10.066;2023-04-06T05:05:51;4.00;99.90
28532;DHT22;15738;44.860;10.066;2023-04-06T05:08:40;4.10;99.90
28532;DHT22;15738;44.860;10.066;2023-04-06T05:11:26;4.10;99.90
28532;DHT22;15738;44.860;10.066;2023-04-06T05:14:17;4.00;99.90
28532;DHT22;15738;44.860;10.066;2023-04-06T05:17:03;4.10;99.90
28532;DHT22;15738;44.860;10.066;2023-04-06T05:19:49;4.10;99.90
28532;DHT22;15738;44.860;10.066;2023-04-06T05:22:40;4.10;99.90
28532;DHT22;15738;44.860;10.066;2023-04-06T05:25:28;4.10;99.90
28532;DHT22;15738;44.860;10.066;2023-04-06T05:28:19;4.20;99.90
28532;DHT22;15738;44.860;10.066;2023-04-06T05:31:05;4.30;99.90
28532;DHT22;15738;44.860;10.066;2023-04-06T05:34:01;4.50;99.90
28532;DHT22;15738;44.860;10.066;2023-04-06T05:36:51;4.60;99.90
28532;DHT22;15738;44.860;10.066;2023-04-06T05:39:41;5.00;99.90
28532;DHT22;15738;44.860;10.066;2023-04-06T05:42:26;5.20;99.90
28532;DHT22;15738;44.860;10.066;2023-04-06T05:45:16;5.40;99.90
28532;DHT22;15738;44.860;10.066;2023-04-06T05:48:09;5.50;99.90
28532;DHT22;15738;44.860;10.066;2023-04-06T05:50:55;5.70;99.90
28532;DHT22;15738;44.860;10.066;2023-04-06T05:53:49;6.00;99.60
28532;DHT22;15738;44.860;10.066;2023-04-06T05:56:37;7.00;98.80
28532;DHT22;15738;44.860;10.066;2023-04-06T05:59:26;7.80;97.70
28532;DHT22;15738;44.860;10.066;2023-04-06T06:02:12;8.00;97.00
28532;DHT22;15738;44.860;10.066;2023-04-06T06:05:02;8.00;97.30
28532;DHT22;15738;44.860;10.066;2023-04-06T06:07:49;8.00;97.40
28532;DHT22;15738;44.860;10.066;2023-04-06T06:10:34;7.90;97.10
28532;DHT22;15738;44.860;10.066;2023-04-06T06:13:20;8.20;97.10
28532;DHT22;15738;44.860;10.066;2023-04-06T06:16:07;8.60;97.00
28532;DHT22;15738;44.860;10.066;2023-04-06T06:18:59;9.30;96.60
28532;DHT22;15738;44.860;10.066;2023-04-06T06:21:45;9.60;96.10
28532;DHT22;15738;44.860;10.066;2023-04-06T06:24:30;9.80;96.10
28532;DHT22;15738;44.860;10.066;2023-04-06T06:27:17;10.20;95.40
28532;DHT22;15738;44.860;10.066;2023-04-06T06:30:03;10.50;94.90
28532;DHT22;15738;44.860;10.066;2023-04-06T06:32:50;10.50;94.30
28532;DHT22;15738;44.860;10.066;2023-04-06T06:35:36;10.70;94.30
28532;DHT22;15738;44.860;10.066;2023-04-06T06:38:23;11.00;93.70
28532;DHT22;15738;44.860;10.066;2023-04-06T06:41:09;11.10;93.70
28532;DHT22;15738;44.860;10.066;2023-04-06T06:43:56;11.30;93.10
28532;DHT22;15738;44.860;10.066;2023-04-06T06:46:43;11.30;93.20
28532;DHT22;15738;44.860;10.066;2023-04-06T06:49:29;11.30;93.20
28532;DHT22;15738;44.860;10.066;2023-04-06T06:52:15;11.50;93.20
28532;DHT22;15738;44.860;10.066;2023-04-06T06:55:02;11.60;93.00
28532;DHT22;15738;44.860;10.066;2023-04-06T06:57:48;11.50;92.70
28532;DHT22;15738;44.860;10.066;2023-04-06T07:00:34;11.60;92.60
28532;DHT22;15738;44.860;10.066;2023-04-06T07:03:20;11.60;92.80
28532;DHT22;15738;44.860;10.066;2023-04-06T07:06:06;11.90;93.20
28532;DHT22;15738;44.860;10.066;2023-04-06T07:08:52;12.10;93.00
28532;DHT22;15738;44.860;10.066;2023-04-06T07:11:37;12.20;92.50
28532;DHT22;15738;44.860;10.066;2023-04-06T07:14:23;12.20;91.80
28532;DHT22;15738;44.860;10.066;2023-04-06T07:17:09;12.10;91.40
28532;DHT22;15738;44.860;10.066;2023-04-06T07:19:56;12.20;92.50
28532;DHT22;15738;44.860;10.066;2023-04-06T07:22:42;12.40;92.10
28532;DHT22;15738;44.860;10.066;2023-04-06T07:25:29;12.40;92.00
28532;DHT22;15738;44.860;10.066;2023-04-06T07:28:14;12.50;92.40
28532;DHT22;15738;44.860;10.066;2023-04-06T07:31:01;12.40;92.90
28532;DHT22;15738;44.860;10.066;2023-04-06T07:33:47;12.60;93.30
28532;DHT22;15738;44.860;10.066;2023-04-06T07:36:33;12.90;93.30
28532;DHT22;15738;44.860;10.066;2023-04-06T07:39:19;12.90;93.30
28532;DHT22;15738;44.860;10.066;2023-04-06T07:42:06;13.00;93.00
28532;DHT22;15738;44.860;10.066;2023-04-06T07:44:51;13.20;92.90
28532;DHT22;15738;44.860;10.066;2023-04-06T07:47:37;13.20;92.50
28532;DHT22;15738;44.860;10.066;2023-04-06T07:50:23;13.20;92.80
28532;DHT22;15738;44.860;10.066;2023-04-06T07:53:10;13.40;92.30
28532;DHT22;15738;44.860;10.066;2023-04-06T07:55:58;13.50;92.90
28532;DHT22;15738;44.860;10.066;2023-04-06T07:58:43;13.70;92.50
28532;DHT22;15738;44.860;10.066;2023-04-06T08:01:29;14.10;92.50
28532;DHT22;15738;44.860;10.066;2023-04-06T08:04:16;13.90;92.30
28532;DHT22;15738;44.860;10.066;2023-04-06T08:07:02;14.00;92.70
28532;DHT22;15738;44.860;10.066;2023-04-06T08:09:47;14.10;92.30
28532;DHT22;15738;44.860;10.066;2023-04-06T08:12:34;14.20;91.40
28532;DHT22;15738;44.860;10.066;2023-04-06T08:15:20;14.10;92.40
28532;DHT22;15738;44.860;10.066;2023-04-06T08:18:06;14.20;92.20
28532;DHT22;15738;44.860;10.066;2023-04-06T08:20:51;14.30;91.60
28532;DHT22;15738;44.860;10.066;2023-04-06T08:23:37;14.50;91.60
28532;DHT22;15738;44.860;10.066;2023-04-06T08:26:23;14.30;90.30
28532;DHT22;15738;44.860;10.066;2023-04-06T08:29:08;14.00;90.30
28532;DHT22;15738;44.860;10.066;2023-04-06T08:31:54;14.30;91.40
28532;DHT22;15738;44.860;10.066;2023-04-06T08:34:39;14.50;92.90
28532;DHT22;15738;44.860;10.066;2023-04-06T08:37:25;14.60;91.70
28532;DHT22;15738;44.860;10.066;2023-04-06T08:40:11;14.60;91.70
28532;DHT22;15738;44.860;10.066;2023-04-06T08:42:57;14.70;91.00
28532;DHT22;15738;44.860;10.066;2023-04-06T08:45:44;14.90;91.50
28532;DHT22;15738;44.860;10.066;2023-04-06T08:48:30;15.10;89.20
28532;DHT22;15738;44.860;10.066;2023-04-06T08:51:15;15.20;91.00
28532;DHT22;15738;44.860;10.066;2023-04-06T08:54:02;15.30;90.40
28532;DHT22;15738;44.860;10.066;2023-04-06T08:56:47;15.50;91.30
28532;DHT22;15738;44.860;10.066;2023-04-06T08:59:33;15.70;90.60
28532;DHT22;15738;44.860;10.066;2023-04-06T09:02:19;15.80;90.30
28532;DHT22;15738;44.860;10.066;2023-04-06T09:05:06;15.90;89.40
28532;DHT22;15738;44.860;10.066;2023-04-06T09:07:52;16.10;87.30
28532;DHT22;15738;44.860;10.066;2023-04-06T09:10:41;15.20;86.00
28532;DHT22;15738;44.860;10.066;2023-04-06T09:13:26;15.20;88.20
28532;DHT22;15738;44.860;10.066;2023-04-06T09:16:12;15.30;90.20
28532;DHT22;15738;44.860;10.066;2023-04-06T09:19:03;15.20;89.20
28532;DHT22;15738;44.860;10.066;2023-04-06T09:21:49;15.30;90.10
28532;DHT22;15738;44.860;10.066;2023-04-06T09:24:42;15.00;88.70
28532;DHT22;15738;44.860;10.066;2023-04-06T09:27:35;14.40;87.80
28532;DHT22;15738;44.860;10.066;2023-04-06T09:30:20;14.50;90.70
28532;DHT22;15738;44.860;10.066;2023-04-06T09:33:06;14.50;90.70
28532;DHT22;15738;44.860;10.066;2023-04-06T09:35:52;13.50;87.90
28532;DHT22;15738;44.860;10.066;2023-04-06T09:38:38;13.30;90.80
28532;DHT22;15738;44.860;10.066;2023-04-06T09:41:30;13.50;90.70
28532;DHT22;15738;44.860;10.066;2023-04-06T09:44:17;13.50;90.00
28532;DHT22;15738;44.860;10.066;2023-04-06T09:47:03;13.50;91.20
28532;DHT22;15738;44.860;10.066;2023-04-06T09:49:55;13.60;91.00
28532;DHT22;15738;44.860;10.066;2023-04-06T09:52:42;13.70;90.10
28532;DHT22;15738;44.860;10.066;2023-04-06T09:55:32;14.10;90.70
28532;DHT22;15738;44.860;10.066;2023-04-06T09:58:20;14.10;90.50
28532;DHT22;15738;44.860;10.066;2023-04-06T10:01:12;14.20;90.00
28532;DHT22;15738;44.860;10.066;2023-04-06T10:06:46;14.20;89.90
28532;DHT22;15738;44.860;10.066;2023-04-06T10:09:33;14.20;88.70
28532;DHT22;15738;44.860;10.066;2023-04-06T10:12:21;14.40;89.60
28532;DHT22;15738;44.860;10.066;2023-04-06T10:15:09;14.60;88.40
28532;DHT22;15738;44.860;10.066;2023-04-06T10:17:55;14.70;85.00
28532;DHT22;15738;44.860;10.066;2023-04-06T10:21:25;14.70;87.50
28532;DHT22;15738;44.860;10.066;2023-04-06T10:23:52;14.80;86.70
28532;DHT22;15738;44.860;10.066;2023-04-06T10:26:38;14.80;86.70
28532;DHT22;15738;44.860;10.066;2023-04-06T10:29:24;14.90;84.30
28532;DHT22;15738;44.860;10.066;2023-04-06T10:32:10;14.80;84.50
28532;DHT22;15738;44.860;10.066;2023-04-06T10:35:08;14.90;86.20
28532;DHT22;15738;44.860;10.066;2023-04-06T10:38:02;15.10;87.90
28532;DHT22;15738;44.860;10.066;2023-04-06T10:41:03;15.20;86.80
28532;DHT22;15738;44.860;10.066;2023-04-06T10:43:55;14.90;87.50
28532;DHT22;15738;44.860;10.066;2023-04-06T10:46:51;14.90;87.30
28532;DHT22;15738;44.860;10.066;2023-04-06T10:49:37;14.90;86.70
28532;DHT22;15738;44.860;10.066;2023-04-06T10:52:26;15.00;86.90
28532;DHT22;15738;44.860;10.066;2023-04-06T10:55:12;15.10;89.10
28532;DHT22;15738;44.860;10.066;2023-04-06T10:57:59;15.00;87.60
28532;DHT22;15738;44.860;10.066;2023-04-06T11:00:46;15.00;88.90
28532;DHT22;15738;44.860;10.066;2023-04-06T11:03:42;15.20;88.20
28532;DHT22;15738;44.860;10.066;2023-04-06T11:06:29;15.20;87.10
28532;DHT22;15738;44.860;10.066;2023-04-06T11:09:26;15.30;86.30
28532;DHT22;15738;44.860;10.066;2023-04-06T11:12:25;15.00;87.20
28532;DHT22;15738;44.860;10.066;2023-04-06T11:15:10;14.80;89.10
28532;DHT22;15738;44.860;10.066;2023-04-06T11:17:56;14.90;87.10
28532;DHT22;15738;44.860;10.066;2023-04-06T11:20:47;14.90;85.30
28532;DHT22;15738;44.860;10.066;2023-04-06T11:23:32;15.00;86.20
28532;DHT22;15738;44.860;10.066;2023-04-06T11:26:18;15.10;86.20
28532;DHT22;15738;44.860;10.066;2023-04-06T11:29:04;15.20;85.80
28532;DHT22;15738;44.860;10.066;2023-04-06T11:31:53;15.40;87.80
28532;DHT22;15738;44.860;10.066;2023-04-06T11:34:39;15.30;85.50
28532;DHT22;15738;44.860;10.066;2023-04-06T11:37:26;15.40;87.20
28532;DHT22;15738;44.860;10.066;2023-04-06T11:40:13;15.40;87.00
28532;DHT22;15738;44.860;10.066;2023-04-06T11:42:58;15.30;85.30
28532;DHT22;15738;44.860;10.066;2023-04-06T11:45:44;15.20;85.00
28532;DHT22;15738;44.860;10.066;2023-04-06T11:48:30;14.70;86.40
28532;DHT22;15738;44.860;10.066;2023-04-06T11:51:22;14.70;86.70
28532;DHT22;15738;44.860;10.066;2023-04-06T11:54:09;15.00;87.00
28532;DHT22;15738;44.860;10.066;2023-04-06T11:56:54;15.00;87.00
28532;DHT22;15738;44.860;10.066;2023-04-06T11:59:41;15.20;85.60
28532;DHT22;15738;44.860;10.066;2023-04-06T12:02:27;15.40;88.00
28532;DHT22;15738;44.860;10.066;2023-04-06T12:05:13;15.60;90.00
28532;DHT22;15738;44.860;10.066;2023-04-06T12:07:59;15.90;88.70
28532;DHT22;15738;44.860;10.066;2023-04-06T12:10:48;15.80;84.30
28532;DHT22;15738;44.860;10.066;2023-04-06T12:13:33;15.80;85.70
28532;DHT22;15738;44.860;10.066;2023-04-06T12:16:19;15.70;84.10
28532;DHT22;15738;44.860;10.066;2023-04-06T12:19:05;15.80;85.60
28532;DHT22;15738;44.860;10.066;2023-04-06T12:21:53;16.00;86.50
28532;DHT22;15738;44.860;10.066;2023-04-06T12:24:40;16.00;88.10
28532;DHT22;15738;44.860;10.066;2023-04-06T12:27:26;16.00;83.80
28532;DHT22;15738;44.860;10.066;2023-04-06T12:30:12;16.00;85.30
28532;DHT22;15738;44.860;10.066;2023-04-06T12:32:58;16.00;84.20
28532;DHT22;15738;44.860;10.066;2023-04-06T12:35:43;16.00;86.70
28532;DHT22;15738;44.860;10.066;2023-04-06T12:38:29;16.20;87.90
28532;DHT22;15738;44.860;10.066;2023-04-06T12:41:15;16.20;85.50
28532;DHT22;15738;44.860;10.066;2023-04-06T12:44:01;16.30;84.80
28532;DHT22;15738;44.860;10.066;2023-04-06T12:46:47;16.20;81.90
28532;DHT22;15738;44.860;10.066;2023-04-06T12:49:33;16.00;83.20
28532;DHT22;15738;44.860;10.066;2023-04-06T12:52:19;16.10;86.60
28532;DHT22;15738;44.860;10.066;2023-04-06T12:55:05;16.20;86.70
28532;DHT22;15738;44.860;10.066;2023-04-06T12:57:51;16.10;86.00
28532;DHT22;15738;44.860;10.066;2023-04-06T13:00:37;16.10;85.40
28532;DHT22;15738;44.860;10.066;2023-04-06T13:03:22;16.10;86.20
28532;DHT22;15738;44.860;10.066;2023-04-06T13:06:09;16.00;86.80
28532;DHT22;15738;44.860;10.066;2023-04-06T13:08:55;16.20;89.90
28532;DHT22;15738;44.860;10.066;2023-04-06T13:11:41;16.20;85.70
28532;DHT22;15738;44.860;10.066;2023-04-06T13:14:26;16.30;86.30
28532;DHT22;15738;44.860;10.066;2023-04-06T13:17:12;16.40;87.20
28532;DHT22;15738;44.860;10.066;2023-04-06T13:19:58;16.60;85.80
28532;DHT22;15738;44.860;10.066;2023-04-06T13:22:44;16.40;84.60
28532;DHT22;15738;44.860;10.066;2023-04-06T13:25:29;16.40;84.10
28532;DHT22;15738;44.860;10.066;2023-04-06T13:28:15;16.40;84.40
28532;DHT22;15738;44.860;10.066;2023-04-06T13:31:01;16.50;87.30
28532;DHT22;15738;44.860;10.066;2023-04-06T13:33:47;16.60;89.70
28532;DHT22;15738;44.860;10.066;2023-04-06T13:36:47;16.70;90.30
28532;DHT22;15738;44.860;10.066;2023-04-06T13:39:34;16.80;87.80
28532;DHT22;15738;44.860;10.066;2023-04-06T13:42:23;16.80;84.30
28532;DHT22;15738;44.860;10.066;2023-04-06T13:45:09;16.90;88.00
28532;DHT22;15738;44.860;10.066;2023-04-06T13:47:55;16.80;84.50
28532;DHT22;15738;44.860;10.066;2023-04-06T13:50:42;16.70;85.40
28532;DHT22;15738;44.860;10.066;2023-04-06T13:53:36;16.60;82.30
28532;DHT22;15738;44.860;10.066;2023-04-06T13:56:28;16.50;83.00
28532;DHT22;15738;44.860;10.066;2023-04-06T13:59:17;16.50;84.90
28532;DHT22;15738;44.860;10.066;2023-04-06T14:02:03;17.90;87.90
28532;DHT22;15738;44.860;10.066;2023-04-06T14:04:49;16.60;86.90
28532;DHT22;15738;44.860;10.066;2023-04-06T14:12:00;16.60;80.20
28532;DHT22;15738;44.860;10.066;2023-04-06T14:14:45;16.60;84.00
28532;DHT22;15738;44.860;10.066;2023-04-06T14:17:31;16.50;83.10
28532;DHT22;15738;44.860;10.066;2023-04-06T14:20:18;16.60;85.50
28532;DHT22;15738;44.860;10.066;2023-04-06T14:23:06;16.60;88.20
28532;DHT22;15738;44.860;10.066;2023-04-06T14:26:00;16.50;84.30
28532;DHT22;15738;44.860;10.066;2023-04-06T14:28:46;16.40;83.50
28532;DHT22;15738;44.860;10.066;2023-04-06T14:31:32;16.50;83.90
28532;DHT22;15738;44.860;10.066;2023-04-06T14:34:17;16.50;82.50
28532;DHT22;15738;44.860;10.066;2023-04-06T14:37:03;16.60;86.30
28532;DHT22;15738;44.860;10.066;2023-04-06T14:39:49;16.50;84.80
28532;DHT22;15738;44.860;10.066;2023-04-06T14:42:35;16.60;85.00
28532;DHT22;15738;44.860;10.066;2023-04-06T14:45:21;16.60;83.90
28532;DHT22;15738;44.860;10.066;2023-04-06T14:48:08;16.60;84.60
28532;DHT22;15738;44.860;10.066;2023-04-06T14:50:57;16.50;82.60
28532;DHT22;15738;44.860;10.066;2023-04-06T14:53:42;16.50;84.40
28532;DHT22;15738;44.860;10.066;2023-04-06T14:56:29;16.50;88.00
28532;DHT22;15738;44.860;10.066;2023-04-06T14:59:16;16.50;86.40
28532;DHT22;15738;44.860;10.066;2023-04-06T15:02:02;16.50;87.50
28532;DHT22;15738;44.860;10.066;2023-04-06T15:04:49;16.50;87.60
28532;DHT22;15738;44.860;10.066;2023-04-06T15:07:35;16.40;87.70
28532;DHT22;15738;44.860;10.066;2023-04-06T15:10:21;16.40;87.80
28532;DHT22;15738;44.860;10.066;2023-04-06T15:13:07;16.30;85.80
28532;DHT22;15738;44.860;10.066;2023-04-06T15:15:52;16.30;87.60
28532;DHT22;15738;44.860;10.066;2023-04-06T15:18:38;16.20;88.00
28532;DHT22;15738;44.860;10.066;2023-04-06T15:21:24;16.10;85.80
28532;DHT22;15738;44.860;10.066;2023-04-06T15:24:10;16.10;86.90
28532;DHT22;15738;44.860;10.066;2023-04-06T15:26:56;16.10;84.50
28532;DHT22;15738;44.860;10.066;2023-04-06T15:29:41;16.20;88.80
28532;DHT22;15738;44.860;10.066;2023-04-06T15:32:27;16.30;86.30
28532;DHT22;15738;44.860;10.066;2023-04-06T15:35:13;16.30;85.00
28532;DHT22;15738;44.860;10.066;2023-04-06T15:37:59;16.30;85.90
28532;DHT22;15738;44.860;10.066;2023-04-06T15:40:46;16.30;84.50
28532;DHT22;15738;44.860;10.066;2023-04-06T15:43:31;16.40;83.50
28532;DHT22;15738;44.860;10.066;2023-04-06T15:46:17;16.20;83.90
28532;DHT22;15738;44.860;10.066;2023-04-06T15:49:03;16.20;84.90
28532;DHT22;15738;44.860;10.066;2023-04-06T15:51:49;16.20;85.00
28532;DHT22;15738;44.860;10.066;2023-04-06T15:54:35;16.20;84.30
28532;DHT22;15738;44.860;10.066;2023-04-06T15:57:25;16.20;85.30
28532;DHT22;15738;44.860;10.066;2023-04-06T16:00:11;16.10;82.40
28532;DHT22;15738;44.860;10.066;2023-04-06T16:02:57;16.10;83.50
28532;DHT22;15738;44.860;10.066;2023-04-06T16:05:43;15.90;84.90
28532;DHT22;15738;44.860;10.066;2023-04-06T16:08:49;15.90;84.70
28532;DHT22;15738;44.860;10.066;2023-04-06T16:11:34;15.90;85.60
28532;DHT22;15738;44.860;10.066;2023-04-06T16:14:21;15.90;86.20
28532;DHT22;15738;44.860;10.066;2023-04-06T16:17:06;15.80;86.60
28532;DHT22;15738;44.860;10.066;2023-04-06T16:19:52;15.80;85.20
28532;DHT22;15738;44.860;10.066;2023-04-06T16:22:38;15.70;85.40
28532;DHT22;15738;44.860;10.066;2023-04-06T16:25:24;15.70;85.40
28532;DHT22;15738;44.860;10.066;2023-04-06T16:28:10;15.60;85.40
28532;DHT22;15738;44.860;10.066;2023-04-06T16:30:56;15.50;85.10
28532;DHT22;15738;44.860;10.066;2023-04-06T16:33:42;15.40;85.60
28532;DHT22;15738;44.860;10.066;2023-04-06T16:36:29;15.40;85.20
28532;DHT22;15738;44.860;10.066;2023-04-06T16:39:16;15.40;85.20
28532;DHT22;15738;44.860;10.066;2023-04-06T16:42:01;15.40;85.10
28532;DHT22;15738;44.860;10.066;2023-04-06T16:44:47;15.40;85.20
28532;DHT22;15738;44.860;10.066;2023-04-06T16:47:33;15.30;86.30
28532;DHT22;15738;44.860;10.066;2023-04-06T16:50:19;15.20;86.40
28532;DHT22;15738;44.860;10.066;2023-04-06T16:53:05;15.20;87.70
28532;DHT22;15738;44.860;10.066;2023-04-06T16:55:50;15.20;89.40
28532;DHT22;15738;44.860;10.066;2023-04-06T16:58:36;15.10;87.50
28532;DHT22;15738;44.860;10.066;2023-04-06T17:01:27;15.10;87.00
28532;DHT22;15738;44.860;10.066;2023-04-06T17:04:12;15.00;86.20
28532;DHT22;15738;44.860;10.066;2023-04-06T17:06:58;15.00;87.30
28532;DHT22;15738;44.860;10.066;2023-04-06T17:09:44;15.00;87.90
28532;DHT22;15738;44.860;10.066;2023-04-06T17:12:29;14.90;87.20
28532;DHT22;15738;44.860;10.066;2023-04-06T17:15:15;14.90;88.20
28532;DHT22;15738;44.860;10.066;2023-04-06T17:18:01;14.80;88.10
28532;DHT22;15738;44.860;10.066;2023-04-06T17:20:46;14.80;88.40
28532;DHT22;15738;44.860;10.066;2023-04-06T17:23:33;14.70;88.40
28532;DHT22;15738;44.860;10.066;2023-04-06T17:26:19;14.70;88.20
28532;DHT22;15738;44.860;10.066;2023-04-06T17:29:06;14.60;88.50
28532;DHT22;15738;44.860;10.066;2023-04-06T17:31:52;14.60;89.80
28532;DHT22;15738;44.860;10.066;2023-04-06T17:34:37;14.50;90.30
28532;DHT22;15738;44.860;10.066;2023-04-06T17:37:23;14.50;90.90